createdAt,value
2022-10-30T00:02:12.888Z,101184.75
2022-10-30T00:04:39.407Z,101184.69
2022-10-30T00:07:05.809Z,101179.47
2022-10-30T00:09:32.230Z,101181.16
2022-10-30T00:11:58.673Z,101182.84
2022-10-30T00:14:25.068Z,101183.69
2022-10-30T00:16:51.460Z,101168.88
2022-10-30T00:19:17.908Z,101174.97
2022-10-30T00:21:44.313Z,101180.16
2022-10-30T00:24:11.187Z,101168.88
2022-10-30T00:26:37.589Z,101162.75
2022-10-30T00:29:04.106Z,101167.97
2022-10-30T00:31:30.519Z,101164.50
2022-10-30T00:33:56.998Z,101156.63
2022-10-30T00:36:23.660Z,101161.81
2022-10-30T00:38:50.076Z,101154.81
2022-10-30T00:41:18.336Z,101152.19
2022-10-30T00:43:45.147Z,101142.56
2022-10-30T00:46:33.491Z,101146.06
2022-10-30T00:49:04.407Z,101146.91
2022-10-30T00:51:31.482Z,101142.53
2022-10-30T00:53:59.827Z,101143.41
2022-10-30T00:56:26.782Z,101136.47
2022-10-30T00:58:57.323Z,101142.53
2022-10-30T01:01:26.202Z,101134.69
2022-10-30T01:03:56.045Z,101143.38
2022-10-30T01:06:23.089Z,101141.66
2022-10-30T01:08:53.746Z,101132.03
2022-10-30T01:11:21.746Z,101131.16
2022-10-30T01:13:49.582Z,101124.13
2022-10-30T01:16:42.869Z,101125.94
2022-10-30T01:19:26.417Z,101116.31
2022-10-30T01:22:25.333Z,101103.25
2022-10-30T01:25:05.649Z,101097.13
2022-10-30T01:28:00.032Z,101120.72
2022-10-30T01:30:46.167Z,101123.25
2022-10-30T01:33:37.355Z,101125.84
2022-10-30T01:36:15.796Z,101128.44
2022-10-30T01:38:52.844Z,101131.88
2022-10-30T01:41:19.295Z,101125.75
2022-10-30T01:43:48.628Z,101125.72
2022-10-30T01:46:38.257Z,101120.44
2022-10-30T01:49:20.924Z,101115.22
2022-10-30T01:51:56.804Z,101108.22
2022-10-30T01:54:53.410Z,101108.16
2022-10-30T01:57:27.465Z,101107.22
2022-10-30T01:59:59.593Z,101111.53
2022-10-30T02:02:26.460Z,101113.28
2022-10-30T02:04:53.084Z,101106.28
2022-10-30T02:07:19.569Z,101103.63
2022-10-30T02:09:45.974Z,101102.72
2022-10-30T02:12:13.868Z,101103.56
2022-10-30T02:14:44.015Z,101097.47
2022-10-30T02:17:11.630Z,101100.06
2022-10-30T02:19:38.212Z,101093.09
2022-10-30T02:22:05.181Z,101089.59
2022-10-30T02:24:31.932Z,101087.84
2022-10-30T02:26:58.836Z,101081.72
2022-10-30T02:29:25.265Z,101083.44
2022-10-30T02:31:51.672Z,101083.38
2022-10-30T02:34:18.096Z,101078.16
2022-10-30T02:36:44.506Z,101070.28
2022-10-30T02:39:10.941Z,101080.72
2022-10-30T02:41:37.608Z,101081.63
2022-10-30T02:44:05.215Z,101080.78
2022-10-30T02:46:31.629Z,101080.84
2022-10-30T02:48:58.038Z,101085.22
2022-10-30T02:51:24.433Z,101091.28
2022-10-30T02:53:50.917Z,101094.75
2022-10-30T02:56:17.537Z,101107.72
2022-10-30T02:58:43.979Z,101106.84
2022-10-30T03:01:15.509Z,101102.47
2022-10-30T03:03:42.692Z,101095.44
2022-10-30T03:06:11.309Z,101091.91
2022-10-30T03:08:37.916Z,101103.19
2022-10-30T03:11:08.495Z,101100.56
2022-10-30T03:13:35.969Z,101102.22
2022-10-30T03:16:07.509Z,101100.41
2022-10-30T03:18:34.396Z,101109.09
2022-10-30T03:21:03.289Z,101110.78
2022-10-30T03:23:29.918Z,101110.72
2022-10-30T03:25:57.775Z,101113.28
2022-10-30T03:28:26.035Z,101120.22
2022-10-30T03:30:58.583Z,101107.13
2022-10-30T03:33:25.093Z,101101.03
2022-10-30T03:35:51.665Z,101097.50
2022-10-30T03:38:18.101Z,101100.09
2022-10-30T03:40:44.502Z,101102.66
2022-10-30T03:43:11.124Z,101101.69
2022-10-30T03:45:37.579Z,101106.84
2022-10-30T03:48:05.664Z,101104.19
2022-10-30T03:50:32.704Z,101110.22
2022-10-30T03:52:59.151Z,101107.56
2022-10-30T03:55:25.751Z,101105.69
2022-10-30T03:57:52.272Z,101103.84
2022-10-30T04:00:19.266Z,101100.31
2022-10-30T04:02:50.122Z,101106.34
2022-10-30T04:05:18.790Z,101102.78
2022-10-30T04:07:45.303Z,101107.91
2022-10-30T04:10:12.625Z,101103.44
2022-10-30T04:12:39.148Z,101088.56
2022-10-30T04:15:07.297Z,101098.88
2022-10-30T04:17:34.054Z,101104.91
2022-10-30T04:20:00.461Z,101102.25
2022-10-30T04:22:27.711Z,101106.59
2022-10-30T04:24:54.122Z,101107.34
2022-10-30T04:27:20.539Z,101107.25
2022-10-30T04:29:47.343Z,101101.06
2022-10-30T04:32:13.819Z,101097.47
2022-10-30T04:34:40.251Z,101100.94
2022-10-30T04:37:07.073Z,101112.97
2022-10-30T04:39:33.495Z,101109.44
2022-10-30T04:41:59.938Z,101086.81
2022-10-30T04:44:26.336Z,101093.78
2022-10-30T04:46:52.752Z,101092.78
2022-10-30T04:49:19.163Z,101094.53
2022-10-30T04:51:47.339Z,101093.78
2022-10-30T04:54:13.755Z,101092.06
2022-10-30T04:56:40.208Z,101098.16
2022-10-30T04:59:06.611Z,101105.13
2022-10-30T05:01:33.117Z,101108.59
2022-10-30T05:03:59.698Z,101101.66
2022-10-30T05:06:27.457Z,101109.47
2022-10-30T05:08:55.709Z,101112.13
2022-10-30T05:11:22.323Z,101107.81
2022-10-30T05:13:48.789Z,101105.22
2022-10-30T05:16:15.209Z,101114.72
2022-10-30T05:18:41.632Z,101112.97
2022-10-30T05:21:08.081Z,101118.19
2022-10-30T05:23:34.502Z,101119.00
2022-10-30T05:26:01.257Z,101124.22
2022-10-30T05:28:27.715Z,101122.47
2022-10-30T05:30:54.530Z,101129.44
2022-10-30T05:33:22.555Z,101130.28
2022-10-30T05:35:49.854Z,101130.22
2022-10-30T05:38:16.285Z,101124.09
2022-10-30T05:40:46.035Z,101136.34
2022-10-30T05:43:12.515Z,101136.34
2022-10-30T05:45:38.930Z,101138.03
2022-10-30T05:48:06.861Z,101139.75
2022-10-30T05:50:33.793Z,101136.25
2022-10-30T05:53:02.235Z,101138.03
2022-10-30T05:55:28.954Z,101144.97
2022-10-30T05:57:57.396Z,101144.97
2022-10-30T06:00:24.638Z,101137.97
2022-10-30T06:02:51.290Z,101145.81
2022-10-30T06:05:17.776Z,101146.66
2022-10-30T06:07:44.184Z,101152.69
2022-10-30T06:10:10.595Z,101155.31
2022-10-30T06:12:37.013Z,101156.16
2022-10-30T06:15:03.768Z,101162.16
2022-10-30T06:17:31.193Z,101169.09
2022-10-30T06:19:57.616Z,101167.31
2022-10-30T06:22:24.017Z,101159.41
2022-10-30T06:24:50.430Z,101159.38
2022-10-30T06:27:16.812Z,101161.97
2022-10-30T06:29:43.236Z,101164.59
2022-10-30T06:32:09.668Z,101163.66
2022-10-30T06:34:36.323Z,101164.50
2022-10-30T06:37:02.815Z,101160.13
2022-10-30T06:39:29.303Z,101163.59
2022-10-30T06:41:55.706Z,101168.75
2022-10-30T06:44:22.119Z,101172.25
2022-10-30T06:46:48.532Z,101171.34
2022-10-30T06:49:14.963Z,101181.81
2022-10-30T06:51:42.041Z,101182.75
2022-10-30T06:54:08.472Z,101173.22
2022-10-30T06:56:34.931Z,101170.69
2022-10-30T06:59:01.339Z,101177.75
2022-10-30T07:01:27.826Z,101177.84
2022-10-30T07:03:54.343Z,101181.38
2022-10-30T07:06:20.791Z,101195.34
2022-10-30T07:08:47.279Z,101188.47
2022-10-30T07:11:14.550Z,101188.56
2022-10-30T07:13:40.953Z,101190.41
2022-10-30T07:16:07.458Z,101186.13
2022-10-30T07:18:33.900Z,101191.38
2022-10-30T07:21:00.333Z,101198.41
2022-10-30T07:23:26.804Z,101187.97
2022-10-30T07:25:53.204Z,101184.63
2022-10-30T07:28:19.727Z,101182.09
2022-10-30T07:30:46.168Z,101168.22
2022-10-30T07:33:12.581Z,101173.56
2022-10-30T07:35:39.034Z,101178.94
2022-10-30T07:38:10.237Z,101181.72
2022-10-30T07:40:36.636Z,101177.50
2022-10-30T07:43:04.231Z,101182.97
2022-10-30T07:45:30.880Z,101177.88
2022-10-30T07:47:57.921Z,101178.06
2022-10-30T07:50:24.776Z,101185.22
2022-10-30T07:52:51.184Z,101188.00
2022-10-30T07:55:17.613Z,101196.00
2022-10-30T07:57:44.031Z,101192.75
2022-10-30T08:00:12.747Z,101193.78
2022-10-30T08:02:39.465Z,101193.97
2022-10-30T08:05:06.701Z,101187.16
2022-10-30T08:07:35.051Z,101188.19
2022-10-30T08:10:01.495Z,101189.22
2022-10-30T08:12:28.053Z,101205.09
2022-10-30T08:14:54.537Z,101206.16
2022-10-30T08:17:21.635Z,101217.63
2022-10-30T08:19:48.108Z,101210.00
2022-10-30T08:22:14.598Z,101210.25
2022-10-30T08:24:41.228Z,101208.63
2022-10-30T08:27:07.950Z,101217.59
2022-10-30T08:29:34.872Z,101210.72
2022-10-30T08:32:01.395Z,101212.69
2022-10-30T08:34:27.992Z,101215.47
2022-10-30T08:36:54.465Z,101215.69
2022-10-30T08:39:21.119Z,101209.78
2022-10-30T08:41:47.503Z,101210.19
2022-10-30T08:44:14.513Z,101205.94
2022-10-30T08:46:40.914Z,101214.78
2022-10-30T08:49:07.340Z,101209.69
2022-10-30T08:51:34.873Z,101206.47
2022-10-30T08:54:01.670Z,101200.53
2022-10-30T08:56:28.125Z,101209.38
2022-10-30T08:58:54.574Z,101205.28
2022-10-30T09:01:21.091Z,101206.22
2022-10-30T09:03:47.848Z,101201.09
2022-10-30T09:06:14.268Z,101208.25
2022-10-30T09:08:40.765Z,101200.50
2022-10-30T09:11:07.176Z,101206.75
2022-10-30T09:13:33.627Z,101204.38
2022-10-30T09:16:01.501Z,101203.56
2022-10-30T09:18:28.225Z,101204.53
2022-10-30T09:20:54.739Z,101203.03
2022-10-30T09:23:21.291Z,101199.63
2022-10-30T09:25:47.723Z,101196.19
2022-10-30T09:28:14.161Z,101200.75
2022-10-30T09:30:40.757Z,101200.00
2022-10-30T09:33:07.209Z,101187.00
2022-10-30T09:35:33.665Z,101182.75
2022-10-30T09:38:00.414Z,101188.91
2022-10-30T09:40:30.090Z,101183.84
2022-10-30T09:43:03.004Z,101190.94
2022-10-30T09:45:49.276Z,101173.53
2022-10-30T09:48:52.530Z,101182.41
2022-10-30T09:51:29.944Z,101181.63
2022-10-30T09:54:15.327Z,101173.84
2022-10-30T09:56:46.458Z,101177.47
2022-10-30T09:59:21.765Z,101185.44
2022-10-30T10:01:53.451Z,101189.09
2022-10-30T10:04:31.779Z,101195.22
2022-10-30T10:07:04.208Z,101190.03
2022-10-30T10:09:31.839Z,101189.31
2022-10-30T10:12:29.664Z,101189.31
2022-10-30T10:14:56.858Z,101191.13
2022-10-30T10:17:31.800Z,101183.38
2022-10-30T10:20:03.307Z,101189.50
2022-10-30T10:22:35.458Z,101186.09
2022-10-30T10:25:11.806Z,101180.88
2022-10-30T10:27:56.323Z,101181.78
2022-10-30T10:30:23.906Z,101184.66
2022-10-30T10:32:50.214Z,101186.41
2022-10-30T10:35:35.047Z,101176.81
2022-10-30T10:38:32.391Z,101183.84
2022-10-30T10:41:07.940Z,101182.22
2022-10-30T10:44:01.340Z,101178.69
2022-10-30T10:46:55.856Z,101175.22
2022-10-30T10:49:53.114Z,101179.69
2022-10-30T10:52:22.899Z,101174.44
2022-10-30T10:55:01.117Z,101178.84
2022-10-30T10:57:38.430Z,101196.44
2022-10-30T11:00:06.417Z,101188.59
2022-10-30T11:02:40.127Z,101188.66
2022-10-30T11:05:18.846Z,101186.97
2022-10-30T11:07:47.976Z,101182.75
2022-10-30T11:10:16.962Z,101188.88
2022-10-30T11:12:43.534Z,101177.38
2022-10-30T11:15:36.729Z,101173.97
2022-10-30T11:18:08.741Z,101178.44
2022-10-30T11:21:09.230Z,101170.53
2022-10-30T11:23:39.996Z,101167.94
2022-10-30T11:26:18.531Z,101162.72
2022-10-30T11:28:53.944Z,101161.84
2022-10-30T11:31:34.894Z,101163.59
2022-10-30T11:34:20.510Z,101165.38
2022-10-30T11:36:51.665Z,101163.59
2022-10-30T11:39:20.720Z,101163.66
2022-10-30T11:42:00.558Z,101168.03
2022-10-30T11:44:56.346Z,101165.41
2022-10-30T11:47:31.729Z,101165.41
2022-10-30T11:50:00.196Z,101161.91
2022-10-30T11:52:27.162Z,101153.16
2022-10-30T11:54:57.152Z,101152.28
2022-10-30T11:57:30.305Z,101150.53
2022-10-30T12:00:02.091Z,101153.22
2022-10-30T12:02:41.345Z,101154.97
2022-10-30T12:05:27.712Z,101152.34
2022-10-30T12:08:23.756Z,101158.50
2022-10-30T12:10:50.060Z,101149.72
2022-10-30T12:13:19.020Z,101137.41
2022-10-30T12:15:47.541Z,101147.94
2022-10-30T12:18:22.980Z,101142.69
2022-10-30T12:20:52.804Z,101143.63
2022-10-30T12:23:22.144Z,101130.44
2022-10-30T12:25:49.530Z,101140.09
2022-10-30T12:28:18.518Z,101133.06
2022-10-30T12:30:54.368Z,101140.09
2022-10-30T12:33:27.996Z,101141.88
2022-10-30T12:35:57.303Z,101139.25
2022-10-30T12:38:39.004Z,101135.75
2022-10-30T12:41:11.452Z,101134.88
2022-10-30T12:43:38.850Z,101140.13
2022-10-30T12:46:47.265Z,101135.75
2022-10-30T12:49:16.679Z,101132.22
2022-10-30T12:52:00.928Z,101138.38
2022-10-30T12:54:36.255Z,101138.38
2022-10-30T12:57:11.127Z,101129.59
2022-10-30T12:59:46.755Z,101133.13
2022-10-30T13:02:26.253Z,101125.22
2022-10-30T13:04:57.790Z,101123.47
2022-10-30T13:07:33.963Z,101119.94
2022-10-30T13:10:21.875Z,101109.41
2022-10-30T13:12:52.419Z,101100.59
2022-10-30T13:15:32.861Z,101102.34
2022-10-30T13:18:01.250Z,101101.47
2022-10-30T13:20:29.306Z,101105.88
2022-10-30T13:23:15.570Z,101101.47
2022-10-30T13:26:06.921Z,101102.38
2022-10-30T13:28:39.214Z,101097.97
2022-10-30T13:31:26.079Z,101097.97
2022-10-30T13:34:01.347Z,101097.06
2022-10-30T13:36:46.754Z,101097.09
2022-10-30T13:39:32.383Z,101093.56
2022-10-30T13:42:14.828Z,101094.44
2022-10-30T13:45:04.487Z,101095.34
2022-10-30T13:47:48.140Z,101091.78
2022-10-30T13:50:45.019Z,101093.56
2022-10-30T13:53:16.846Z,101094.44
2022-10-30T13:55:43.957Z,101088.31
2022-10-30T13:58:41.071Z,101091.78
2022-10-30T14:01:17.873Z,101090.91
2022-10-30T14:04:01.945Z,101089.16
2022-10-30T14:06:39.291Z,101096.19
2022-10-30T14:09:39.501Z,101093.56
2022-10-30T14:12:42.904Z,101097.94
2022-10-30T14:15:20.637Z,101093.56
2022-10-30T14:18:11.749Z,101092.66
2022-10-30T14:20:49.515Z,101081.25
2022-10-30T14:23:35.644Z,101081.25
2022-10-30T14:26:02.016Z,101084.75
2022-10-30T14:28:29.754Z,101081.25
2022-10-30T14:31:35.796Z,101078.59
2022-10-30T14:34:02.277Z,101082.13
2022-10-30T14:36:37.861Z,101082.94
2022-10-30T14:39:13.241Z,101077.66
2022-10-30T14:41:59.429Z,101077.69
2022-10-30T14:45:06.822Z,101081.19
2022-10-30T14:47:58.041Z,101079.41
2022-10-30T14:50:27.403Z,101078.53
2022-10-30T14:53:12.111Z,101077.66
2022-10-30T14:56:13.329Z,101074.09
2022-10-30T14:58:39.960Z,101080.25
2022-10-30T15:01:09.394Z,101072.34
2022-10-30T15:03:41.827Z,101081.13
2022-10-30T15:06:29.723Z,101075.81
2022-10-30T15:09:08.338Z,101081.09
2022-10-30T15:11:55.570Z,101070.53
2022-10-30T15:14:40.637Z,101066.13
2022-10-30T15:17:39.787Z,101074.00
2022-10-30T15:20:12.413Z,101067.84
2022-10-30T15:22:38.988Z,101072.22
2022-10-30T15:25:06.440Z,101076.56
2022-10-30T15:27:32.959Z,101078.28
2022-10-30T15:30:01.444Z,101085.25
2022-10-30T15:32:27.900Z,101087.00
2022-10-30T15:35:00.057Z,101088.69
2022-10-30T15:37:27.111Z,101093.06
2022-10-30T15:40:12.552Z,101081.59
2022-10-30T15:42:39.215Z,101085.97
2022-10-30T15:45:06.448Z,101078.00
2022-10-30T15:47:33.147Z,101085.00
2022-10-30T15:50:00.163Z,101088.44
2022-10-30T15:52:28.232Z,101087.50
2022-10-30T15:55:00.464Z,101092.69
2022-10-30T15:57:57.396Z,101090.84
2022-10-30T16:00:20.847Z,101092.53
2022-10-30T16:02:49.460Z,101092.44
2022-10-30T16:05:22.961Z,101083.59
2022-10-30T16:07:49.392Z,101084.41
2022-10-30T16:10:17.597Z,101079.97
2022-10-30T16:12:44.545Z,101083.38
2022-10-30T16:15:30.847Z,101075.41
2022-10-30T16:18:04.830Z,101067.47
2022-10-30T16:20:31.461Z,101067.38
2022-10-30T16:22:59.525Z,101075.19
2022-10-30T16:25:26.028Z,101069.84
2022-10-30T16:27:52.479Z,101063.66
2022-10-30T16:30:18.944Z,101068.88
2022-10-30T16:32:52.353Z,101073.97
2022-10-30T16:35:19.557Z,101076.53
2022-10-30T16:37:46.516Z,101079.09
2022-10-30T16:40:12.871Z,101079.09
2022-10-30T16:42:39.840Z,101082.66
2022-10-30T16:45:12.265Z,101084.34
2022-10-30T16:47:39.763Z,101079.06
2022-10-30T16:50:07.344Z,101085.09
2022-10-30T16:52:35.513Z,101086.75
2022-10-30T16:55:04.936Z,101090.09
2022-10-30T16:57:33.169Z,101090.03
2022-10-30T17:00:00.841Z,101093.41
2022-10-30T17:02:30.199Z,101102.03
2022-10-30T17:05:11.424Z,101094.03
2022-10-30T17:07:38.624Z,101099.19
2022-10-30T17:10:35.336Z,101102.56
2022-10-30T17:13:36.839Z,101105.06
2022-10-30T17:16:12.501Z,101098.78
2022-10-30T17:18:38.896Z,101096.09
2022-10-30T17:21:05.299Z,101100.38
2022-10-30T17:23:31.763Z,101101.16
2022-10-30T17:25:58.304Z,101110.69
2022-10-30T17:28:27.261Z,101115.81
2022-10-30T17:30:53.739Z,101100.91
2022-10-30T17:33:29.368Z,101105.22
2022-10-30T17:35:55.917Z,101109.47
2022-10-30T17:38:22.396Z,101108.53
2022-10-30T17:40:48.966Z,101102.31
2022-10-30T17:43:15.451Z,101106.53
2022-10-30T17:45:42.902Z,101104.72
2022-10-30T17:48:17.262Z,101115.06
2022-10-30T17:50:44.260Z,101106.25
2022-10-30T17:53:21.862Z,101107.09
2022-10-30T17:56:04.143Z,101111.41
2022-10-30T17:58:30.955Z,101113.88
2022-10-30T18:00:58.517Z,101119.94
2022-10-30T18:03:25.055Z,101119.81
2022-10-30T18:05:52.135Z,101117.94
2022-10-30T18:08:18.541Z,101124.81
2022-10-30T18:10:45.051Z,101129.91
2022-10-30T18:13:15.471Z,101121.06
2022-10-30T18:15:44.467Z,101125.34
2022-10-30T18:18:11.058Z,101131.31
2022-10-30T18:20:37.554Z,101129.50
2022-10-30T18:23:04.781Z,101136.41
2022-10-30T18:25:33.582Z,101128.47
2022-10-30T18:28:00.009Z,101146.69
2022-10-30T18:30:29.000Z,101140.50
2022-10-30T18:32:56.224Z,101140.41
2022-10-30T18:35:29.614Z,101141.16
2022-10-30T18:37:56.826Z,101147.19
2022-10-30T18:40:23.605Z,101141.88
2022-10-30T18:42:50.017Z,101150.47
2022-10-30T18:45:21.463Z,101144.25
2022-10-30T18:47:48.652Z,101145.06
2022-10-30T18:50:16.301Z,101147.53
2022-10-30T18:52:42.900Z,101153.47
2022-10-30T18:55:21.634Z,101149.91
2022-10-30T18:58:02.425Z,101149.84
2022-10-30T19:00:39.816Z,101147.13
2022-10-30T19:03:17.777Z,101147.09
2022-10-30T19:05:50.809Z,101141.81
2022-10-30T19:08:17.259Z,101153.97
2022-10-30T19:10:45.920Z,101154.78
2022-10-30T19:13:17.702Z,101144.22
2022-10-30T19:15:47.044Z,101142.31
2022-10-30T19:18:14.020Z,101143.13
2022-10-30T19:21:03.168Z,101133.50
2022-10-30T19:23:27.331Z,101139.50
2022-10-30T19:25:53.862Z,101134.16
2022-10-30T19:28:21.190Z,101132.41
2022-10-30T19:30:52.949Z,101131.44
2022-10-30T19:33:21.232Z,101130.50
2022-10-30T19:36:00.976Z,101138.22
2022-10-30T19:38:28.239Z,101146.84
2022-10-30T19:40:54.679Z,101144.13
2022-10-30T19:43:21.085Z,101144.06
2022-10-30T19:45:51.266Z,101133.47
2022-10-30T19:48:34.392Z,101140.34
2022-10-30T19:51:09.236Z,101134.13
2022-10-30T19:53:35.667Z,101149.69
2022-10-30T19:56:02.099Z,101153.97
2022-10-30T19:58:28.519Z,101151.28
2022-10-30T20:00:55.495Z,101151.25
2022-10-30T20:03:22.027Z,101158.19
2022-10-30T20:05:50.396Z,101162.47
2022-10-30T20:08:20.100Z,101164.25
2022-10-30T20:10:51.871Z,101165.94
2022-10-30T20:13:19.096Z,101169.31
2022-10-30T20:15:45.517Z,101177.06
2022-10-30T20:18:23.345Z,101183.09
2022-10-30T20:20:51.586Z,101176.84
2022-10-30T20:23:18.370Z,101179.38
2022-10-30T20:25:45.047Z,101179.28
2022-10-30T20:28:38.565Z,101177.41
2022-10-30T20:31:06.210Z,101188.66
2022-10-30T20:33:32.994Z,101180.78
2022-10-30T20:35:59.448Z,101188.53
2022-10-30T20:38:29.323Z,101190.25
2022-10-30T20:40:56.650Z,101198.97
2022-10-30T20:43:33.156Z,101196.34
2022-10-30T20:46:00.291Z,101201.56
2022-10-30T20:48:27.871Z,101193.81
2022-10-30T20:50:55.984Z,101192.16
2022-10-30T20:53:22.386Z,101197.41
2022-10-30T20:55:48.817Z,101202.66
2022-10-30T20:58:15.490Z,101194.84
2022-10-30T21:00:42.167Z,101199.16
2022-10-30T21:03:10.463Z,101203.50
2022-10-30T21:05:45.451Z,101211.38
2022-10-30T21:08:13.768Z,101210.50
2022-10-30T21:10:40.490Z,101213.94
2022-10-30T21:13:09.023Z,101212.16
2022-10-30T21:15:40.873Z,101211.25
2022-10-30T21:18:07.701Z,101215.63
2022-10-30T21:20:34.273Z,101213.84
2022-10-30T21:23:00.702Z,101219.06
2022-10-30T21:25:27.160Z,101216.50
2022-10-30T21:27:56.514Z,101219.13
2022-10-30T21:30:22.963Z,101214.78
2022-10-30T21:32:49.391Z,101217.38
2022-10-30T21:35:15.802Z,101213.94
2022-10-30T21:37:42.225Z,101219.06
2022-10-30T21:40:09.308Z,101217.31
2022-10-30T21:42:35.708Z,101214.66
2022-10-30T21:45:02.202Z,101206.72
2022-10-30T21:47:28.609Z,101211.88
2022-10-30T21:49:55.041Z,101209.19
2022-10-30T21:52:21.499Z,101215.25
2022-10-30T21:54:47.911Z,101217.75
2022-10-30T21:57:14.357Z,101217.69
2022-10-30T21:59:40.787Z,101213.28
2022-10-30T22:02:07.287Z,101218.50
2022-10-30T22:04:34.679Z,101222.00
2022-10-30T22:07:01.092Z,101218.50
2022-10-30T22:09:27.517Z,101220.28
2022-10-30T22:11:53.911Z,101215.06
2022-10-30T22:14:20.338Z,101216.72
2022-10-30T22:16:48.168Z,101219.31
2022-10-30T22:19:14.586Z,101221.00
2022-10-30T22:21:41.001Z,101220.06
2022-10-30T22:24:07.721Z,101224.41
2022-10-30T22:26:34.168Z,101223.44
2022-10-30T22:29:00.863Z,101215.53
2022-10-30T22:31:29.776Z,101225.97
2022-10-30T22:33:56.409Z,101213.75
2022-10-30T22:36:25.413Z,101213.72
2022-10-30T22:38:58.521Z,101218.09
2022-10-30T22:41:25.871Z,101219.75
2022-10-30T22:43:55.168Z,101225.91
2022-10-30T22:46:23.735Z,101228.66
2022-10-30T22:48:50.604Z,101227.84
2022-10-30T22:51:18.047Z,101227.06
2022-10-30T22:53:46.336Z,101235.88
2022-10-30T22:56:21.655Z,101233.38
2022-10-30T22:58:49.463Z,101239.56
2022-10-30T23:01:25.860Z,101236.09
2022-10-30T23:03:54.635Z,101240.53
2022-10-30T23:06:21.079Z,101240.56
2022-10-30T23:08:47.823Z,101247.56
2022-10-30T23:11:14.646Z,101251.13
2022-10-30T23:13:41.081Z,101252.06
2022-10-30T23:16:09.048Z,101259.03
2022-10-30T23:18:35.792Z,101259.94
2022-10-30T23:21:05.499Z,101266.91
2022-10-30T23:23:35.881Z,101262.50
2022-10-30T23:26:10.923Z,101272.03
2022-10-30T23:28:37.367Z,101271.03
2022-10-30T23:31:10.497Z,101261.38
2022-10-30T23:33:36.943Z,101270.06
2022-10-30T23:36:04.595Z,101270.00
2022-10-30T23:38:31.025Z,101268.19
2022-10-30T23:40:57.447Z,101265.53
2022-10-30T23:43:23.956Z,101262.88
2022-10-30T23:45:53.313Z,101261.16
2022-10-30T23:48:19.959Z,101273.38
2022-10-30T23:50:46.365Z,101265.59
2022-10-30T23:53:12.860Z,101266.56
2022-10-30T23:55:39.289Z,101266.59
2022-10-30T23:58:05.784Z,101276.19
